Time;durP1;ratioP1;P1;durP2;ratioP2;P2;SDS_P1;SDS_P2;PMS_P1;PMS_P2;Temp;Humidity;BMP_temperature;BMP_pressure;BME280_temperature;BME280_humidity;BME280_pressure;Samples;Min_cycle;Max_cycle;Signal;HPM_P1;HPM_P2
2021/11/30 00:00:57;;;;;;;27.08;14.00;;;3.30;99.90;;;;;;5009586;28;20026;-51
2021/11/30 00:03:23;;;;;;;27.45;13.10;;;3.20;99.90;;;;;;5009642;28;20034;-51
2021/11/30 00:05:49;;;;;;;29.33;14.63;;;3.30;99.90;;;;;;5013860;28;20057;-51
2021/11/30 00:08:16;;;;;;;30.08;14.70;;;3.30;99.90;;;;;;5013104;28;20022;-51
2021/11/30 00:13:21;;;;;;;28.30;14.70;;;3.30;99.90;;;;;;5013324;28;20503;-51
2021/11/30 00:15:50;;;;;;;29.70;15.02;;;3.30;99.90;;;;;;5013648;28;20029;-51
2021/11/30 00:18:16;;;;;;;24.83;13.98;;;3.30;99.90;;;;;;5013067;28;20034;-51
2021/11/30 00:20:43;;;;;;;30.58;15.93;;;3.30;99.90;;;;;;5013662;28;20034;-52
2021/11/30 00:23:10;;;;;;;32.63;15.63;;;3.30;99.90;;;;;;5013238;28;20034;-52
2021/11/30 00:25:36;;;;;;;30.60;16.25;;;3.40;99.90;;;;;;5013876;28;20021;-49
2021/11/30 00:28:03;;;;;;;29.08;15.43;;;3.40;99.90;;;;;;5012464;28;20073;-50
2021/11/30 00:30:31;;;;;;;30.98;15.35;;;3.40;99.90;;;;;;5013357;28;20077;-51
2021/11/30 00:32:58;;;;;;;30.88;15.95;;;3.50;99.90;;;;;;5013152;28;20044;-52
2021/11/30 00:35:24;;;;;;;26.23;14.00;;;3.40;99.90;;;;;;5013147;28;20033;-52
2021/11/30 00:37:50;;;;;;;29.20;14.55;;;3.50;99.90;;;;;;5013041;28;20030;-49
2021/11/30 00:40:17;;;;;;;30.33;15.85;;;3.40;99.90;;;;;;5012753;28;20117;-50
2021/11/30 00:42:43;;;;;;;29.08;15.35;;;3.40;99.90;;;;;;5013243;28;20373;-53
2021/11/30 00:45:10;;;;;;;28.90;14.38;;;3.40;99.90;;;;;;5012661;28;20359;-52
2021/11/30 00:47:46;;;;;;;31.50;15.30;;;3.40;99.90;;;;;;5013016;28;20376;-51
2021/11/30 00:50:13;;;;;;;29.02;15.38;;;3.40;99.90;;;;;;5012370;28;20105;-50
2021/11/30 00:52:39;;;;;;;32.50;16.02;;;3.30;99.90;;;;;;5013055;28;20045;-52
2021/11/30 00:55:05;;;;;;;30.60;14.77;;;3.40;99.90;;;;;;5012610;28;20064;-50
2021/11/30 00:57:31;;;;;;;31.05;16.45;;;3.40;99.90;;;;;;5012944;28;20038;-54
2021/11/30 00:59:57;;;;;;;33.50;16.73;;;3.30;99.90;;;;;;5012419;28;20038;-52
2021/11/30 01:02:23;;;;;;;37.00;16.23;;;3.30;99.90;;;;;;5012546;28;20498;-51
2021/11/30 01:04:49;;;;;;;33.10;16.70;;;3.40;99.90;;;;;;5012855;28;20181;-52
2021/11/30 01:07:15;;;;;;;30.20;15.52;;;3.40;99.90;;;;;;5012362;28;20076;-52
2021/11/30 01:09:42;;;;;;;31.55;16.05;;;3.40;99.90;;;;;;5012219;28;20065;-51
2021/11/30 01:12:09;;;;;;;30.35;16.27;;;3.40;99.90;;;;;;5012106;28;20026;-51
2021/11/30 01:14:36;;;;;;;30.30;15.50;;;3.50;99.90;;;;;;5012423;28;20107;-51
2021/11/30 01:17:02;;;;;;;33.05;17.13;;;3.50;99.90;;;;;;5012305;28;20029;-51
2021/11/30 01:19:28;;;;;;;28.55;15.07;;;3.50;99.90;;;;;;5012168;28;20051;-51
2021/11/30 01:21:54;;;;;;;29.45;15.10;;;3.50;99.90;;;;;;5012341;28;20040;-50
2021/11/30 01:24:20;;;;;;;26.90;12.43;;;3.50;99.90;;;;;;5012057;28;20045;-51
2021/11/30 01:26:46;;;;;;;32.33;16.70;;;3.60;99.90;;;;;;5012244;28;20026;-52
2021/11/30 01:29:12;;;;;;;33.33;15.38;;;3.60;99.90;;;;;;5011736;28;20026;-51
2021/11/30 01:31:37;;;;;;;28.02;15.35;;;3.60;99.90;;;;;;5012434;28;20022;-52
2021/11/30 01:34:04;;;;;;;29.65;14.82;;;3.60;99.90;;;;;;5011877;28;20042;-49
2021/11/30 01:36:30;;;;;;;27.10;15.05;;;3.70;99.90;;;;;;5012120;28;20018;-52
2021/11/30 01:38:59;;;;;;;29.98;15.43;;;3.60;99.90;;;;;;5011545;28;20033;-51
2021/11/30 01:41:26;;;;;;;30.50;15.60;;;3.60;99.90;;;;;;5012293;28;20033;-49
2021/11/30 01:43:53;;;;;;;29.13;15.35;;;3.70;99.90;;;;;;5011824;28;20033;-51
2021/11/30 01:51:29;;;;;;;29.02;13.00;;;3.70;99.90;;;;;;5012653;28;20080;-50
2021/11/30 01:53:56;;;;;;;28.15;13.07;;;3.80;99.90;;;;;;5011523;28;20026;-52
2021/11/30 01:56:23;;;;;;;28.88;14.07;;;3.80;99.90;;;;;;5011704;28;20109;-51
2021/11/30 01:58:50;;;;;;;34.95;15.65;;;3.70;99.90;;;;;;5011368;28;20021;-51
2021/11/30 02:01:16;;;;;;;27.67;12.75;;;3.70;99.90;;;;;;5011924;28;20026;-52
2021/11/30 02:03:42;;;;;;;28.42;15.40;;;3.70;99.90;;;;;;5011539;28;20136;-51
2021/11/30 02:06:08;;;;;;;28.60;14.23;;;3.60;99.90;;;;;;5011260;28;20041;-52
2021/11/30 02:08:34;;;;;;;24.02;12.73;;;3.60;99.90;;;;;;5010364;28;20356;-52
2021/11/30 02:11:00;;;;;;;24.88;13.32;;;3.50;99.90;;;;;;5010248;28;20502;-52
2021/11/30 02:13:26;;;;;;;26.50;13.98;;;3.50;99.90;;;;;;5011429;28;20033;-51
2021/11/30 02:15:56;;;;;;;24.02;13.05;;;3.50;99.90;;;;;;5010096;28;20026;-55
2021/11/30 02:18:23;;;;;;;30.80;13.60;;;3.50;99.90;;;;;;5010892;28;20049;-55
2021/11/30 02:20:57;;;;;;;25.67;14.35;;;3.40;99.90;;;;;;5011265;28;20034;-53
2021/11/30 02:23:38;;;;;;;23.52;13.45;;;3.40;99.90;;;;;;5011032;28;20034;-55
2021/11/30 02:26:13;;;;;;;24.38;14.45;;;3.40;99.90;;;;;;5010654;28;20121;-51
2021/11/30 02:28:40;;;;;;;24.70;14.57;;;3.50;99.90;;;;;;5010727;28;20141;-50
2021/11/30 02:31:08;;;;;;;21.60;12.55;;;3.40;99.90;;;;;;5010781;28;20037;-52
2021/11/30 02:33:34;;;;;;;21.00;12.15;;;3.40;99.90;;;;;;5011057;28;20033;-52
2021/11/30 02:36:00;;;;;;;23.13;13.68;;;3.40;99.90;;;;;;5011089;28;20044;-52
2021/11/30 02:38:26;;;;;;;23.70;12.45;;;3.40;99.90;;;;;;5010714;28;20160;-52
2021/11/30 02:40:52;;;;;;;18.10;11.00;;;3.40;99.90;;;;;;5010871;28;20109;-56
2021/11/30 02:43:18;;;;;;;20.27;11.05;;;3.40;99.90;;;;;;5011106;28;20034;-51
2021/11/30 02:45:44;;;;;;;17.10;10.73;;;3.50;99.90;;;;;;5011326;28;20041;-51
2021/11/30 02:48:10;;;;;;;15.35;9.43;;;3.50;99.90;;;;;;5010043;28;20025;-51
2021/11/30 02:50:42;;;;;;;18.60;9.68;;;3.50;99.90;;;;;;5010877;28;20292;-52
2021/11/30 02:53:15;;;;;;;14.70;8.98;;;3.50;99.90;;;;;;5010450;28;20026;-54
2021/11/30 02:55:41;;;;;;;16.63;10.02;;;3.50;99.90;;;;;;5010974;28;20032;-49
2021/11/30 02:58:06;;;;;;;16.05;9.35;;;3.50;99.90;;;;;;5010024;28;20026;-49
2021/11/30 03:00:33;;;;;;;21.67;8.48;;;3.50;99.90;;;;;;5009455;28;20042;-51
2021/11/30 03:02:58;;;;;;;14.10;8.60;;;3.50;99.90;;;;;;5010601;28;20026;-53
2021/11/30 03:05:24;;;;;;;15.00;8.75;;;3.50;99.90;;;;;;5010673;28;20446;-51
2021/11/30 03:07:50;;;;;;;15.23;9.32;;;3.50;99.90;;;;;;5010582;28;20583;-52
2021/11/30 03:10:19;;;;;;;18.98;8.48;;;3.60;99.90;;;;;;5010294;28;20029;-52
2021/11/30 03:12:46;;;;;;;18.63;8.63;;;3.50;99.90;;;;;;5010731;28;20403;-50
2021/11/30 03:15:18;;;;;;;15.43;8.85;;;3.60;99.90;;;;;;5010786;28;20419;-53
2021/11/30 03:17:45;;;;;;;14.80;9.48;;;3.60;99.90;;;;;;5010983;28;20026;-48
2021/11/30 03:20:12;;;;;;;12.30;7.55;;;3.60;99.90;;;;;;5010026;28;20042;-52
2021/11/30 03:22:39;;;;;;;16.23;9.10;;;3.60;99.90;;;;;;5010425;28;20048;-51
2021/11/30 03:25:07;;;;;;;11.35;7.78;;;3.50;99.90;;;;;;5009886;28;20033;-51
2021/11/30 03:27:34;;;;;;;14.25;8.75;;;3.60;99.90;;;;;;5010174;28;20542;-51
2021/11/30 03:30:00;;;;;;;14.90;8.25;;;3.60;99.90;;;;;;5009687;28;20083;-51
2021/11/30 03:35:12;;;;;;;16.48;8.40;;;3.60;99.90;;;;;;5010061;28;20049;-51
2021/11/30 03:37:37;;;;;;;14.75;9.23;;;3.50;99.90;;;;;;5009764;28;20474;-51
2021/11/30 03:40:04;;;;;;;14.55;9.15;;;3.50;99.90;;;;;;5008796;28;20092;-55
2021/11/30 03:42:30;;;;;;;14.30;9.60;;;3.50;99.90;;;;;;5009888;28;20129;-53
2021/11/30 03:44:56;;;;;;;12.07;8.15;;;3.50;99.90;;;;;;5008496;28;20129;-50
2021/11/30 03:47:23;;;;;;;14.82;9.35;;;3.50;99.90;;;;;;5010053;28;20026;-52
2021/11/30 03:49:49;;;;;;;14.65;9.40;;;3.50;99.90;;;;;;5008088;28;20034;-50
2021/11/30 03:52:15;;;;;;;15.60;9.23;;;3.50;99.90;;;;;;5009724;28;20129;-52
2021/11/30 03:54:41;;;;;;;13.25;9.10;;;3.40;99.90;;;;;;5009782;28;20053;-53
2021/11/30 03:57:06;;;;;;;12.80;7.97;;;3.50;99.90;;;;;;5009749;28;20029;-53
2021/11/30 03:59:32;;;;;;;13.75;8.05;;;3.40;99.90;;;;;;5009371;28;20127;-52
2021/11/30 04:01:58;;;;;;;10.40;6.85;;;3.40;99.90;;;;;;5009531;28;20044;-52
2021/11/30 04:04:25;;;;;;;10.48;7.28;;;3.50;99.90;;;;;;5009507;28;20034;-53
2021/11/30 04:06:55;;;;;;;7.50;5.78;;;3.40;99.90;;;;;;5009689;28;20034;-53
2021/11/30 04:09:21;;;;;;;11.35;7.65;;;3.40;99.90;;;;;;5009273;28;20141;-50
2021/11/30 04:11:48;;;;;;;10.38;6.80;;;3.40;99.90;;;;;;5010096;28;20046;-55
2021/11/30 04:14:15;;;;;;;9.77;7.45;;;3.40;99.90;;;;;;5008262;28;20543;-52
2021/11/30 04:16:41;;;;;;;9.55;6.00;;;3.40;99.90;;;;;;5009819;28;20038;-53
2021/11/30 04:19:07;;;;;;;7.28;5.47;;;3.40;99.90;;;;;;5008848;28;20029;-53
2021/11/30 04:21:33;;;;;;;8.23;6.18;;;3.40;99.90;;;;;;5009956;28;20037;-50
2021/11/30 04:23:58;;;;;;;5.97;4.43;;;3.40;99.90;;;;;;5009455;28;20034;-51
2021/11/30 04:26:25;;;;;;;7.93;4.88;;;3.40;99.90;;;;;;5009712;28;20022;-52
2021/11/30 04:28:51;;;;;;;5.95;4.22;;;3.40;99.90;;;;;;5009103;28;20049;-48
2021/11/30 04:31:16;;;;;;;7.80;5.82;;;3.50;99.90;;;;;;5009835;28;20120;-53
2021/11/30 04:33:43;;;;;;;11.13;5.55;;;3.50;99.90;;;;;;5009582;28;20638;-54
2021/11/30 04:36:09;;;;;;;9.93;6.20;;;3.50;99.90;;;;;;5007890;28;20038;-52
2021/11/30 04:38:36;;;;;;;8.30;5.05;;;3.50;99.90;;;;;;5009427;28;20670;-52
2021/11/30 04:41:03;;;;;;;7.35;5.82;;;3.50;99.90;;;;;;5009053;28;20034;-53
2021/11/30 04:43:34;;;;;;;8.38;5.95;;;3.50;99.90;;;;;;5009661;28;20050;-51
2021/11/30 04:46:14;;;;;;;10.60;5.72;;;3.50;99.90;;;;;;5009463;28;20472;-52
2021/11/30 04:48:41;;;;;;;7.50;5.57;;;3.50;99.90;;;;;;5008959;28;20018;-52
2021/11/30 04:51:11;;;;;;;10.60;6.10;;;3.60;99.90;;;;;;5011802;28;20088;-53
2021/11/30 04:53:40;;;;;;;7.55;5.07;;;3.60;99.90;;;;;;5013468;28;20030;-51
2021/11/30 04:56:06;;;;;;;8.70;6.00;;;3.60;99.90;;;;;;5012779;28;20137;-53
2021/11/30 04:58:32;;;;;;;9.10;5.70;;;3.60;99.90;;;;;;5012539;28;20116;-52
2021/11/30 05:00:58;;;;;;;5.75;4.65;;;3.70;99.90;;;;;;5013051;28;20026;-52
2021/11/30 05:03:23;;;;;;;6.93;4.93;;;3.70;99.90;;;;;;5012828;28;20537;-52
2021/11/30 05:05:49;;;;;;;7.60;5.88;;;3.70;99.90;;;;;;5012833;28;20094;-53
2021/11/30 05:08:15;;;;;;;8.40;5.93;;;3.70;99.90;;;;;;5011762;28;20080;-55
2021/11/30 05:10:41;;;;;;;8.15;6.47;;;3.70;99.90;;;;;;5013021;28;20081;-53
2021/11/30 05:13:07;;;;;;;9.88;6.70;;;3.70;99.90;;;;;;5012617;28;20113;-53
2021/11/30 05:15:33;;;;;;;9.10;5.93;;;3.80;99.90;;;;;;5012653;28;20037;-53
2021/11/30 05:17:58;;;;;;;6.20;4.78;;;3.80;99.90;;;;;;5012288;28;20179;-52
2021/11/30 05:20:24;;;;;;;7.18;5.43;;;3.80;99.90;;;;;;5012758;28;20383;-53
2021/11/30 05:22:52;;;;;;;6.70;5.40;;;3.80;99.90;;;;;;5012727;28;20036;-54
2021/11/30 05:25:19;;;;;;;7.05;5.63;;;3.90;99.90;;;;;;5012208;28;20547;-52
2021/11/30 05:27:45;;;;;;;7.47;5.78;;;3.90;99.90;;;;;;5012487;28;20113;-54
2021/11/30 05:30:13;;;;;;;7.43;5.50;;;3.90;99.90;;;;;;5011683;28;20112;-56
2021/11/30 05:32:43;;;;;;;7.70;5.43;;;3.90;99.90;;;;;;5012146;28;20048;-53
2021/11/30 05:35:10;;;;;;;7.20;6.00;;;3.90;99.90;;;;;;5012082;28;20183;-53
2021/11/30 05:37:36;;;;;;;7.90;6.07;;;4.00;99.90;;;;;;5012260;28;20026;-54
2021/11/30 05:40:03;;;;;;;6.53;5.63;;;4.00;99.90;;;;;;5011380;28;20381;-54
2021/11/30 05:42:29;;;;;;;8.18;5.97;;;4.10;99.90;;;;;;5012416;28;20134;-50
2021/11/30 05:44:55;;;;;;;7.25;5.55;;;4.10;99.90;;;;;;5011984;28;20587;-49
2021/11/30 05:47:21;;;;;;;7.38;6.13;;;4.10;99.90;;;;;;5011813;28;20459;-49
2021/11/30 05:49:47;;;;;;;7.38;5.60;;;4.10;99.90;;;;;;5011442;28;20464;-49
2021/11/30 05:52:12;;;;;;;10.55;6.20;;;4.10;99.90;;;;;;5011679;28;20037;-51
2021/11/30 05:54:39;;;;;;;8.27;6.88;;;4.20;99.90;;;;;;5012029;28;20034;-49
2021/11/30 05:57:11;;;;;;;9.45;6.85;;;4.30;99.90;;;;;;5011618;28;20034;-53
2021/11/30 05:59:40;;;;;;;7.55;6.40;;;4.30;99.90;;;;;;5011392;28;20030;-49
2021/11/30 06:02:08;;;;;;;9.10;6.53;;;4.30;99.90;;;;;;5010624;28;20415;-49
2021/11/30 06:04:34;;;;;;;8.18;7.13;;;4.30;99.90;;;;;;5012118;28;20037;-50
2021/11/30 06:07:00;;;;;;;9.45;7.20;;;4.30;99.90;;;;;;5011705;28;20072;-49
2021/11/30 06:09:26;;;;;;;9.57;7.50;;;4.40;99.90;;;;;;5011899;28;20030;-49
2021/11/30 06:11:52;;;;;;;9.10;6.35;;;4.40;99.90;;;;;;5012685;28;20442;-49
2021/11/30 06:14:18;;;;;;;10.88;7.45;;;4.40;99.90;;;;;;5010773;28;20022;-49
2021/11/30 06:16:43;;;;;;;9.65;8.00;;;4.50;99.90;;;;;;5012828;28;20041;-49
2021/11/30 06:19:11;;;;;;;13.25;8.95;;;4.50;99.90;;;;;;5011472;28;20033;-52
2021/11/30 06:21:38;;;;;;;8.30;6.90;;;4.50;99.90;;;;;;5012253;28;20072;-51
2021/11/30 06:24:04;;;;;;;9.82;8.18;;;4.60;99.90;;;;;;5010082;28;20125;-51
2021/11/30 06:26:30;;;;;;;9.70;8.35;;;4.60;99.90;;;;;;5011804;28;20034;-49
2021/11/30 06:28:56;;;;;;;10.73;8.73;;;4.60;99.90;;;;;;5010984;28;20398;-50
2021/11/30 06:31:22;;;;;;;8.85;7.38;;;4.70;99.90;;;;;;5010306;28;20030;-53
2021/11/30 06:33:47;;;;;;;10.65;8.45;;;4.70;99.90;;;;;;5010589;28;20112;-54
2021/11/30 06:36:14;;;;;;;9.93;7.28;;;4.70;99.90;;;;;;5011244;28;20056;-50
2021/11/30 06:38:39;;;;;;;10.32;7.75;;;4.80;99.90;;;;;;5011569;28;20025;-50
2021/11/30 06:41:05;;;;;;;8.73;7.10;;;4.80;99.90;;;;;;5009249;28;20034;-49
2021/11/30 06:43:31;;;;;;;8.30;6.78;;;4.90;99.90;;;;;;4989994;28;20065;-55
2021/11/30 06:45:57;;;;;;;9.57;6.25;;;4.90;99.90;;;;;;4990244;28;20116;-51
2021/11/30 06:48:22;;;;;;;10.82;5.88;;;4.90;99.90;;;;;;4992869;28;20069;-50
2021/11/30 06:50:48;;;;;;;7.13;5.05;;;5.00;99.90;;;;;;4998687;28;20025;-52
2021/11/30 06:53:14;;;;;;;7.63;6.07;;;5.00;99.90;;;;;;4999793;28;20472;-51
2021/11/30 06:55:40;;;;;;;7.43;6.50;;;5.00;99.90;;;;;;5004651;28;20113;-52
2021/11/30 06:58:06;;;;;;;7.70;6.20;;;5.00;99.90;;;;;;4994144;28;20109;-54
2021/11/30 07:00:32;;;;;;;7.28;5.40;;;5.10;99.90;;;;;;4997988;28;20357;-50
2021/11/30 07:02:58;;;;;;;11.20;6.20;;;5.10;99.90;;;;;;4996683;28;20330;-50
2021/11/30 07:15:56;;;;;;;5.80;4.70;;;5.40;99.90;;;;;;4996496;28;20057;-49
2021/11/30 07:18:22;;;;;;;5.65;4.63;;;5.40;99.90;;;;;;4992450;28;20057;-53
2021/11/30 07:20:48;;;;;;;5.82;3.90;;;5.50;99.90;;;;;;4986725;28;20041;-54
2021/11/30 07:23:14;;;;;;;5.72;3.60;;;5.60;99.90;;;;;;4987738;28;20526;-57
2021/11/30 07:25:40;;;;;;;4.88;3.30;;;5.70;99.90;;;;;;4984849;28;20031;-50
2021/11/30 07:28:06;;;;;;;6.70;3.60;;;5.70;99.90;;;;;;5001332;28;20558;-51
2021/11/30 07:30:33;;;;;;;4.32;3.30;;;5.70;99.90;;;;;;4993357;28;20023;-59
2021/11/30 07:33:00;;;;;;;11.10;3.40;;;5.80;99.90;;;;;;4998938;28;20030;-55
2021/11/30 07:35:26;;;;;;;8.75;2.90;;;5.80;99.90;;;;;;5000055;28;20048;-50
2021/11/30 07:37:52;;;;;;;10.80;2.83;;;5.80;99.90;;;;;;5002994;28;20475;-58
2021/11/30 07:40:18;;;;;;;8.25;2.50;;;5.90;99.90;;;;;;5002871;28;20484;-61
2021/11/30 07:42:44;;;;;;;14.85;2.63;;;5.90;99.90;;;;;;4999496;28;20065;-61
2021/11/30 07:45:12;;;;;;;13.27;2.60;;;6.00;99.90;;;;;;4998228;28;20037;-58
2021/11/30 07:47:38;;;;;;;15.38;2.20;;;6.00;99.90;;;;;;5008864;28;20109;-55
2021/11/30 07:50:05;;;;;;;9.80;1.90;;;6.30;99.90;;;;;;4997533;28;20115;-51
2021/11/30 07:52:36;;;;;;;12.70;2.17;;;6.30;99.90;;;;;;5007808;28;20277;-55
2021/11/30 07:55:05;;;;;;;13.75;3.10;;;6.30;99.90;;;;;;4999551;28;20066;-51
2021/11/30 07:57:31;;;;;;;19.38;3.20;;;6.50;99.90;;;;;;4987324;28;20030;-53
2021/11/30 07:59:57;;;;;;;8.35;1.90;;;6.30;99.90;;;;;;4992816;28;20030;-52
2021/11/30 08:02:22;;;;;;;15.93;2.40;;;6.30;99.90;;;;;;4990013;28;20495;-50
2021/11/30 08:04:49;;;;;;;11.05;2.17;;;6.30;99.90;;;;;;4995318;28;20088;-51
2021/11/30 08:07:16;;;;;;;10.95;2.28;;;6.20;99.90;;;;;;5002664;28;20502;-49
2021/11/30 08:09:43;;;;;;;16.05;2.47;;;6.20;99.90;;;;;;5001239;28;20575;-51
2021/11/30 08:12:09;;;;;;;12.07;2.20;;;6.30;99.90;;;;;;4990282;28;20077;-48
2021/11/30 08:14:35;;;;;;;16.27;2.88;;;6.30;99.90;;;;;;4996941;28;20065;-49
2021/11/30 08:17:00;;;;;;;15.02;2.95;;;6.30;99.90;;;;;;4995357;28;20042;-56
2021/11/30 08:19:27;;;;;;;16.23;2.35;;;6.30;99.90;;;;;;4997195;28;20042;-55
2021/11/30 08:21:53;;;;;;;15.10;1.85;;;6.30;99.90;;;;;;5001178;28;20029;-57
2021/11/30 08:24:20;;;;;;;16.70;2.60;;;6.30;99.90;;;;;;4993370;28;20385;-57
2021/11/30 08:26:46;;;;;;;20.67;3.63;;;6.30;99.90;;;;;;5005440;28;20030;-54
2021/11/30 08:29:12;;;;;;;17.80;2.50;;;6.20;99.90;;;;;;5009351;28;20113;-52
2021/11/30 08:31:38;;;;;;;17.42;2.92;;;6.20;99.90;;;;;;5003461;28;20026;-48
2021/11/30 08:34:04;;;;;;;20.55;2.90;;;6.20;99.90;;;;;;4996320;28;20033;-48
2021/11/30 08:36:30;;;;;;;21.88;4.13;;;6.30;99.90;;;;;;5003148;28;20022;-48
2021/11/30 08:38:56;;;;;;;21.65;3.42;;;6.20;99.90;;;;;;4999402;28;20045;-51
2021/11/30 08:41:24;;;;;;;21.10;4.10;;;6.30;99.90;;;;;;5000983;28;20023;-49
2021/11/30 08:43:50;;;;;;;23.30;3.13;;;6.30;99.90;;;;;;4981305;28;20543;-48
2021/11/30 08:46:15;;;;;;;15.68;3.67;;;6.30;99.90;;;;;;4997090;28;20092;-48
2021/11/30 08:48:41;;;;;;;28.13;4.53;;;6.30;99.90;;;;;;5005658;28;20038;-55
2021/11/30 08:51:07;;;;;;;19.05;3.30;;;6.30;99.90;;;;;;5001313;28;20019;-49
2021/11/30 08:53:34;;;;;;;21.20;3.38;;;6.40;99.90;;;;;;4994081;28;20634;-54
2021/11/30 08:56:04;;;;;;;17.25;2.92;;;6.40;99.90;;;;;;4999124;28;20045;-52
2021/11/30 08:58:30;;;;;;;24.13;3.50;;;6.40;99.90;;;;;;4991723;28;20114;-48
2021/11/30 09:00:56;;;;;;;22.80;3.53;;;6.40;99.90;;;;;;5002207;28;20438;-49
2021/11/30 09:03:22;;;;;;;28.13;3.70;;;6.50;99.90;;;;;;5002274;28;20040;-50
2021/11/30 09:05:48;;;;;;;21.38;3.10;;;6.40;99.90;;;;;;5000390;28;20034;-55
2021/11/30 09:08:15;;;;;;;19.58;3.60;;;6.30;99.90;;;;;;5013244;28;20022;-57
2021/11/30 09:10:42;;;;;;;22.85;2.92;;;6.30;99.90;;;;;;5003677;28;20045;-51
2021/11/30 09:13:08;;;;;;;16.52;4.45;;;6.20;99.90;;;;;;4999980;28;20419;-56
2021/11/30 09:15:33;;;;;;;18.17;3.38;;;6.20;99.90;;;;;;4994544;28;20057;-50
2021/11/30 09:18:00;;;;;;;18.92;3.08;;;6.20;99.90;;;;;;4999126;28;20440;-53
2021/11/30 09:20:28;;;;;;;15.18;2.63;;;6.20;99.90;;;;;;5010063;28;20044;-53
2021/11/30 09:22:54;;;;;;;16.17;3.10;;;6.20;99.90;;;;;;5004616;28;20069;-54
2021/11/30 09:25:21;;;;;;;23.38;3.25;;;6.20;99.90;;;;;;4999507;28;20026;-51
2021/11/30 09:27:48;;;;;;;25.13;3.35;;;6.20;99.90;;;;;;4993992;28;20031;-51
2021/11/30 09:30:15;;;;;;;19.02;3.45;;;6.30;99.90;;;;;;5006883;28;20037;-55
2021/11/30 09:32:41;;;;;;;19.63;3.13;;;6.30;99.90;;;;;;5002680;28;20033;-54
2021/11/30 09:35:10;;;;;;;20.48;2.97;;;6.30;99.90;;;;;;4997335;28;20037;-56
2021/11/30 09:37:39;;;;;;;21.80;4.30;;;6.30;99.90;;;;;;4996853;28;20632;-49
2021/11/30 09:40:08;;;;;;;22.40;3.45;;;6.30;99.90;;;;;;5005627;28;20038;-51
2021/11/30 09:42:35;;;;;;;24.40;2.88;;;6.30;99.90;;;;;;5002492;28;20373;-54
2021/11/30 09:45:05;;;;;;;21.80;3.72;;;6.30;99.90;;;;;;4997987;28;20069;-57
2021/11/30 09:47:33;;;;;;;19.00;3.63;;;6.40;99.90;;;;;;4991894;28;20038;-52
2021/11/30 09:50:00;;;;;;;28.17;4.60;;;6.30;99.90;;;;;;4996619;28;20710;-48
2021/11/30 09:52:25;;;;;;;26.85;4.75;;;6.40;99.90;;;;;;4994152;28;20041;-48
2021/11/30 09:54:51;;;;;;;19.05;4.43;;;6.40;99.90;;;;;;5003344;28;20033;-48
2021/11/30 09:57:17;;;;;;;28.23;3.53;;;6.50;99.90;;;;;;5002708;28;20038;-51
2021/11/30 09:59:47;;;;;;;21.45;3.45;;;6.50;99.90;;;;;;5002733;28;20032;-52
2021/11/30 10:02:13;;;;;;;22.17;3.88;;;6.50;99.90;;;;;;5004731;28;20038;-55
2021/11/30 10:04:40;;;;;;;20.48;3.63;;;6.60;99.90;;;;;;5002314;28;20046;-55
2021/11/30 10:07:06;;;;;;;20.50;4.20;;;6.60;99.90;;;;;;5006099;28;20026;-53
2021/11/30 10:09:33;;;;;;;19.50;3.70;;;6.60;99.90;;;;;;5000930;28;20080;-51
2021/11/30 10:12:12;;;;;;;27.40;3.80;;;6.70;99.90;;;;;;5007939;28;20030;-50
2021/11/30 10:14:39;;;;;;;28.33;3.75;;;6.70;99.90;;;;;;5002303;28;20566;-49
2021/11/30 10:17:17;;;;;;;26.95;4.15;;;6.70;99.90;;;;;;5005790;28;20045;-49
2021/11/30 10:19:53;;;;;;;23.23;3.63;;;6.80;99.90;;;;;;5001770;28;20025;-53
2021/11/30 10:22:46;;;;;;;21.95;4.25;;;6.90;99.90;;;;;;5005772;28;20031;-52
2021/11/30 10:25:12;;;;;;;31.90;4.88;;;7.00;99.90;;;;;;4994626;28;20360;-53
2021/11/30 10:27:47;;;;;;;28.05;3.38;;;7.10;99.90;;;;;;4997682;28;20037;-49
2021/11/30 10:30:16;;;;;;;22.27;4.13;;;7.10;99.90;;;;;;5006112;28;20495;-54
2021/11/30 10:32:46;;;;;;;43.75;4.88;;;7.10;99.90;;;;;;5000216;28;20042;-52
2021/11/30 10:35:13;;;;;;;20.80;3.42;;;7.00;99.90;;;;;;4991542;28;20038;-49
2021/11/30 10:37:45;;;;;;;27.30;4.65;;;7.00;99.90;;;;;;4985799;28;20030;-51
2021/11/30 10:40:14;;;;;;;35.33;4.97;;;7.00;99.90;;;;;;5005365;28;20112;-52
2021/11/30 10:42:55;;;;;;;32.75;6.05;;;7.00;99.90;;;;;;4996046;28;20485;-51
2021/11/30 10:45:37;;;;;;;34.38;6.00;;;7.00;99.90;;;;;;4989720;28;20081;-53
2021/11/30 10:48:27;;;;;;;43.80;6.22;;;7.00;99.90;;;;;;4997389;28;20506;-52
2021/11/30 10:50:56;;;;;;;31.17;5.13;;;7.00;99.90;;;;;;4978151;28;20038;-54
2021/11/30 10:53:30;;;;;;;27.52;4.80;;;7.10;99.90;;;;;;5010549;28;20030;-54
2021/11/30 10:56:06;;;;;;;35.17;5.43;;;7.20;99.90;;;;;;5008221;28;20038;-51
2021/11/30 10:58:38;;;;;;;34.70;6.50;;;7.40;99.90;;;;;;4999839;28;20035;-56
2021/11/30 11:01:10;;;;;;;;;;;7.70;99.90;;;;;;5007816;28;20026;-54
2021/11/30 11:03:36;;;;;;;35.95;5.25;;;7.80;99.90;;;;;;5001001;28;19910;-52
2021/11/30 11:08:50;;;;;;;36.42;5.10;;;7.70;99.90;;;;;;5001983;28;20053;-53
2021/11/30 11:11:18;;;;;;;39.70;6.25;;;7.50;99.90;;;;;;5006885;28;20026;-53
2021/11/30 11:13:45;;;;;;;27.90;4.40;;;7.20;99.90;;;;;;4999031;28;20030;-53
2021/11/30 11:16:33;;;;;;;42.53;7.07;;;7.00;99.90;;;;;;4985287;28;20034;-53
2021/11/30 11:19:02;;;;;;;38.67;4.90;;;6.90;99.90;;;;;;4996192;28;20085;-53
2021/11/30 11:21:32;;;;;;;33.88;4.50;;;6.90;99.90;;;;;;5004958;28;20030;-52
2021/11/30 11:24:05;;;;;;;35.50;6.45;;;6.90;99.90;;;;;;5001328;28;20030;-56
2021/11/30 11:26:40;;;;;;;46.58;6.18;;;7.00;99.90;;;;;;5007531;28;20472;-53
2021/11/30 11:29:17;;;;;;;28.52;4.97;;;7.00;99.90;;;;;;5000145;28;20037;-52
2021/11/30 11:32:05;;;;;;;33.00;5.00;;;7.10;99.90;;;;;;4992733;28;20109;-47
2021/11/30 11:34:33;;;;;;;29.75;5.30;;;7.20;99.90;;;;;;4998854;28;20062;-54
2021/11/30 11:37:00;;;;;;;29.83;4.78;;;7.20;99.90;;;;;;5004234;28;20018;-50
2021/11/30 11:39:29;;;;;;;43.25;6.60;;;7.20;99.90;;;;;;4998941;28;20110;-52
2021/11/30 11:42:01;;;;;;;34.63;6.35;;;7.30;99.90;;;;;;5005342;28;20433;-53
2021/11/30 11:44:27;;;;;;;31.20;4.75;;;7.30;99.90;;;;;;4998065;28;20041;-53
2021/11/30 11:46:58;;;;;;;29.98;5.88;;;7.30;99.90;;;;;;4992025;28;20019;-55
2021/11/30 11:49:25;;;;;;;39.58;4.82;;;7.30;99.90;;;;;;5000081;28;20404;-56
2021/11/30 11:51:54;;;;;;;28.65;5.28;;;7.30;99.90;;;;;;4988813;28;20068;-53
2021/11/30 11:54:35;;;;;;;35.53;4.20;;;7.30;99.90;;;;;;4997716;28;20046;-54
2021/11/30 11:57:00;;;;;;;24.58;4.13;;;7.30;99.90;;;;;;4973131;28;20034;-55
2021/11/30 11:59:34;;;;;;;32.83;4.20;;;7.20;99.90;;;;;;5001565;28;20030;-53
2021/11/30 12:02:16;;;;;;;26.58;4.47;;;7.20;99.90;;;;;;4987129;28;20452;-56
2021/11/30 12:04:44;;;;;;;26.90;4.47;;;7.20;99.90;;;;;;4995328;28;20037;-55
2021/11/30 12:07:10;;;;;;;28.70;4.13;;;7.20;99.90;;;;;;5003902;28;20035;-49
2021/11/30 12:09:36;;;;;;;27.52;5.35;;;7.30;99.90;;;;;;4999465;28;20027;-54
2021/11/30 12:12:11;;;;;;;32.08;4.03;;;7.30;99.90;;;;;;5005496;28;20030;-52
2021/11/30 12:14:41;;;;;;;28.75;5.18;;;7.40;99.90;;;;;;4999067;28;20038;-53
2021/11/30 12:17:16;;;;;;;27.20;3.50;;;7.40;99.90;;;;;;4997448;28;20034;-53
2021/11/30 12:19:42;;;;;;;26.60;3.55;;;7.30;99.90;;;;;;5000302;28;20053;-51
2021/11/30 12:22:10;;;;;;;23.77;4.10;;;7.30;99.90;;;;;;5005955;28;20400;-52
2021/11/30 12:24:46;;;;;;;23.23;3.42;;;7.30;99.90;;;;;;4999877;28;20034;-51
2021/11/30 12:27:24;;;;;;;25.92;4.57;;;7.30;99.90;;;;;;5006013;28;20105;-49
2021/11/30 12:29:51;;;;;;;23.80;5.13;;;7.20;99.90;;;;;;4990114;28;20069;-54
2021/11/30 12:32:38;;;;;;;34.55;3.97;;;7.10;99.90;;;;;;4988954;28;20530;-48
2021/11/30 12:35:09;;;;;;;23.20;3.63;;;6.90;99.90;;;;;;4990242;28;20461;-53
2021/11/30 12:37:35;;;;;;;23.77;4.85;;;6.80;99.90;;;;;;5003803;28;20062;-53
2021/11/30 12:40:04;;;;;;;28.15;4.47;;;6.70;99.90;;;;;;5000779;28;20121;-54
2021/11/30 12:42:52;;;;;;;34.55;4.90;;;6.70;99.90;;;;;;5004765;28;20582;-52
2021/11/30 12:45:43;;;;;;;25.73;4.10;;;6.80;99.90;;;;;;5001442;28;20072;-50
2021/11/30 12:48:37;;;;;;;20.85;3.38;;;6.80;99.90;;;;;;5004681;28;20068;-54
2021/11/30 12:51:23;;;;;;;24.30;3.05;;;6.90;99.90;;;;;;4987504;28;20056;-51
2021/11/30 12:53:49;;;;;;;21.27;3.13;;;7.00;99.90;;;;;;4993867;28;20036;-52
2021/11/30 12:56:55;;;;;;;10.82;2.58;;;7.10;99.90;;;;;;5001155;28;20092;-52
2021/11/30 12:59:39;;;;;;;17.33;3.72;;;6.90;99.90;;;;;;5001495;28;20084;-49
2021/11/30 13:02:38;;;;;;;21.27;3.05;;;6.60;99.90;;;;;;4996773;28;20026;-48
2021/11/30 13:05:20;;;;;;;21.95;2.90;;;6.50;99.90;;;;;;4971730;28;20226;-49
2021/11/30 13:07:49;;;;;;;25.92;3.97;;;6.50;99.90;;;;;;4999444;28;20026;-50
2021/11/30 13:10:22;;;;;;;21.17;3.50;;;6.50;99.90;;;;;;5002811;28;20015;-49
2021/11/30 13:12:48;;;;;;;26.85;3.83;;;6.50;99.90;;;;;;4992188;28;20034;-48
2021/11/30 13:15:15;;;;;;;22.42;2.95;;;6.50;99.90;;;;;;5002464;28;20388;-52
2021/11/30 13:17:42;;;;;;;18.95;3.80;;;6.60;99.90;;;;;;5003967;28;20079;-54